sensor_id;sensor_type;location;lat;lon;timestamp;P1;durP1;ratioP1;P2;durP2;ratioP2
15063;SDS011;7631;52.088;5.088;2023-05-13T00:00:37;7.43;;;6.73;;
15063;SDS011;7631;52.088;5.088;2023-05-13T00:03:03;7.37;;;6.67;;
15063;SDS011;7631;52.088;5.088;2023-05-13T00:05:28;7.60;;;7.00;;
15063;SDS011;7631;52.088;5.088;2023-05-13T00:07:53;7.43;;;6.83;;
15063;SDS011;7631;52.088;5.088;2023-05-13T00:10:18;7.60;;;7.00;;
15063;SDS011;7631;52.088;5.088;2023-05-13T00:12:44;7.20;;;6.60;;
15063;SDS011;7631;52.088;5.088;2023-05-13T00:15:09;7.60;;;6.90;;
15063;SDS011;7631;52.088;5.088;2023-05-13T00:17:35;7.47;;;6.80;;
15063;SDS011;7631;52.088;5.088;2023-05-13T00:20:00;7.90;;;7.20;;
15063;SDS011;7631;52.088;5.088;2023-05-13T00:22:25;8.07;;;7.37;;
15063;SDS011;7631;52.088;5.088;2023-05-13T00:24:50;7.40;;;6.70;;
15063;SDS011;7631;52.088;5.088;2023-05-13T00:27:15;7.67;;;6.97;;
15063;SDS011;7631;52.088;5.088;2023-05-13T00:29:41;7.93;;;7.13;;
15063;SDS011;7631;52.088;5.088;2023-05-13T00:32:06;7.23;;;6.63;;
15063;SDS011;7631;52.088;5.088;2023-05-13T00:34:31;7.63;;;6.93;;
15063;SDS011;7631;52.088;5.088;2023-05-13T00:36:56;7.73;;;7.03;;
15063;SDS011;7631;52.088;5.088;2023-05-13T00:39:22;6.77;;;6.17;;
15063;SDS011;7631;52.088;5.088;2023-05-13T00:41:47;6.90;;;6.30;;
15063;SDS011;7631;52.088;5.088;2023-05-13T00:44:13;6.60;;;6.10;;
15063;SDS011;7631;52.088;5.088;2023-05-13T00:46:38;7.20;;;6.60;;
15063;SDS011;7631;52.088;5.088;2023-05-13T00:49:03;6.53;;;5.93;;
15063;SDS011;7631;52.088;5.088;2023-05-13T00:51:29;6.90;;;6.30;;
15063;SDS011;7631;52.088;5.088;2023-05-13T00:53:56;7.20;;;6.57;;
15063;SDS011;7631;52.088;5.088;2023-05-13T00:56:22;6.63;;;6.00;;
15063;SDS011;7631;52.088;5.088;2023-05-13T00:58:47;6.93;;;6.33;;
15063;SDS011;7631;52.088;5.088;2023-05-13T01:06:39;6.50;;;5.93;;
15063;SDS011;7631;52.088;5.088;2023-05-13T01:11:43;6.37;;;5.87;;
15063;SDS011;7631;52.088;5.088;2023-05-13T01:14:18;6.33;;;5.73;;
15063;SDS011;7631;52.088;5.088;2023-05-13T01:16:54;6.80;;;6.20;;
15063;SDS011;7631;52.088;5.088;2023-05-13T01:21:51;7.00;;;6.40;;
15063;SDS011;7631;52.088;5.088;2023-05-13T01:24:16;6.77;;;6.07;;
15063;SDS011;7631;52.088;5.088;2023-05-13T01:26:42;6.30;;;5.80;;
15063;SDS011;7631;52.088;5.088;2023-05-13T01:29:07;6.23;;;5.73;;
15063;SDS011;7631;52.088;5.088;2023-05-13T01:31:32;6.07;;;5.50;;
15063;SDS011;7631;52.088;5.088;2023-05-13T01:33:58;6.70;;;6.10;;
15063;SDS011;7631;52.088;5.088;2023-05-13T01:36:23;6.70;;;6.10;;
15063;SDS011;7631;52.088;5.088;2023-05-13T01:38:48;6.30;;;5.70;;
15063;SDS011;7631;52.088;5.088;2023-05-13T01:41:14;7.97;;;5.80;;
15063;SDS011;7631;52.088;5.088;2023-05-13T01:43:39;6.60;;;6.00;;
15063;SDS011;7631;52.088;5.088;2023-05-13T01:46:10;5.90;;;5.40;;
15063;SDS011;7631;52.088;5.088;2023-05-13T01:48:35;6.57;;;5.97;;
15063;SDS011;7631;52.088;5.088;2023-05-13T01:51:00;6.50;;;5.90;;
15063;SDS011;7631;52.088;5.088;2023-05-13T01:53:26;6.13;;;5.63;;
15063;SDS011;7631;52.088;5.088;2023-05-13T01:55:51;6.27;;;5.67;;
15063;SDS011;7631;52.088;5.088;2023-05-13T01:58:16;6.57;;;5.97;;
15063;SDS011;7631;52.088;5.088;2023-05-13T02:00:41;5.90;;;5.40;;
15063;SDS011;7631;52.088;5.088;2023-05-13T02:03:07;6.00;;;5.50;;
15063;SDS011;7631;52.088;5.088;2023-05-13T02:05:32;6.43;;;5.83;;
15063;SDS011;7631;52.088;5.088;2023-05-13T02:07:57;7.10;;;6.50;;
15063;SDS011;7631;52.088;5.088;2023-05-13T02:10:22;6.10;;;5.60;;
15063;SDS011;7631;52.088;5.088;2023-05-13T02:12:48;7.00;;;6.30;;
15063;SDS011;7631;52.088;5.088;2023-05-13T02:15:13;6.23;;;5.73;;
15063;SDS011;7631;52.088;5.088;2023-05-13T02:17:38;6.27;;;5.77;;
15063;SDS011;7631;52.088;5.088;2023-05-13T02:20:04;6.90;;;6.20;;
15063;SDS011;7631;52.088;5.088;2023-05-13T02:22:29;6.40;;;5.90;;
15063;SDS011;7631;52.088;5.088;2023-05-13T02:24:54;6.40;;;5.63;;
15063;SDS011;7631;52.088;5.088;2023-05-13T02:27:19;6.00;;;5.50;;
15063;SDS011;7631;52.088;5.088;2023-05-13T02:29:45;6.10;;;5.50;;
15063;SDS011;7631;52.088;5.088;2023-05-13T02:32:10;6.57;;;5.97;;
15063;SDS011;7631;52.088;5.088;2023-05-13T02:34:35;6.63;;;6.03;;
15063;SDS011;7631;52.088;5.088;2023-05-13T02:37:01;6.53;;;5.93;;
15063;SDS011;7631;52.088;5.088;2023-05-13T02:39:27;7.13;;;6.43;;
15063;SDS011;7631;52.088;5.088;2023-05-13T02:41:52;6.97;;;6.37;;
15063;SDS011;7631;52.088;5.088;2023-05-13T02:44:17;7.20;;;6.50;;
15063;SDS011;7631;52.088;5.088;2023-05-13T02:46:42;7.27;;;6.57;;
15063;SDS011;7631;52.088;5.088;2023-05-13T02:49:09;7.67;;;6.97;;
15063;SDS011;7631;52.088;5.088;2023-05-13T02:51:34;7.27;;;6.67;;
15063;SDS011;7631;52.088;5.088;2023-05-13T02:53:59;7.27;;;6.57;;
15063;SDS011;7631;52.088;5.088;2023-05-13T02:56:24;7.30;;;6.60;;
15063;SDS011;7631;52.088;5.088;2023-05-13T02:58:50;7.43;;;6.83;;
15063;SDS011;7631;52.088;5.088;2023-05-13T03:01:15;6.87;;;6.27;;
15063;SDS011;7631;52.088;5.088;2023-05-13T03:03:40;7.67;;;6.97;;
15063;SDS011;7631;52.088;5.088;2023-05-13T03:06:05;8.00;;;7.17;;
15063;SDS011;7631;52.088;5.088;2023-05-13T03:08:31;7.13;;;6.43;;
15063;SDS011;7631;52.088;5.088;2023-05-13T03:10:56;7.57;;;6.87;;
15063;SDS011;7631;52.088;5.088;2023-05-13T03:13:22;7.60;;;6.90;;
15063;SDS011;7631;52.088;5.088;2023-05-13T03:15:47;7.93;;;7.23;;
15063;SDS011;7631;52.088;5.088;2023-05-13T03:18:12;8.13;;;7.33;;
15063;SDS011;7631;52.088;5.088;2023-05-13T03:20:37;7.40;;;6.80;;
15063;SDS011;7631;52.088;5.088;2023-05-13T03:23:03;8.07;;;7.30;;
15063;SDS011;7631;52.088;5.088;2023-05-13T03:25:28;8.07;;;7.37;;
15063;SDS011;7631;52.088;5.088;2023-05-13T03:27:53;8.07;;;7.37;;
15063;SDS011;7631;52.088;5.088;2023-05-13T03:30:19;7.73;;;7.03;;
15063;SDS011;7631;52.088;5.088;2023-05-13T03:32:44;8.03;;;7.33;;
15063;SDS011;7631;52.088;5.088;2023-05-13T03:35:09;8.07;;;7.37;;
15063;SDS011;7631;52.088;5.088;2023-05-13T03:37:34;8.10;;;7.40;;
15063;SDS011;7631;52.088;5.088;2023-05-13T03:40:00;7.90;;;7.20;;
15063;SDS011;7631;52.088;5.088;2023-05-13T03:42:25;8.60;;;7.80;;
15063;SDS011;7631;52.088;5.088;2023-05-13T03:44:50;8.57;;;7.77;;
15063;SDS011;7631;52.088;5.088;2023-05-13T03:47:15;8.63;;;7.83;;
15063;SDS011;7631;52.088;5.088;2023-05-13T03:49:41;8.43;;;7.63;;
15063;SDS011;7631;52.088;5.088;2023-05-13T03:52:06;8.80;;;8.00;;
15063;SDS011;7631;52.088;5.088;2023-05-13T03:54:34;9.07;;;8.17;;
15063;SDS011;7631;52.088;5.088;2023-05-13T03:57:00;8.70;;;7.80;;
15063;SDS011;7631;52.088;5.088;2023-05-13T03:59:25;9.57;;;8.67;;
15063;SDS011;7631;52.088;5.088;2023-05-13T04:01:50;8.93;;;8.13;;
15063;SDS011;7631;52.088;5.088;2023-05-13T04:04:16;9.00;;;8.20;;
15063;SDS011;7631;52.088;5.088;2023-05-13T04:06:41;9.30;;;8.50;;
15063;SDS011;7631;52.088;5.088;2023-05-13T04:09:06;9.20;;;8.40;;
15063;SDS011;7631;52.088;5.088;2023-05-13T04:11:31;10.03;;;9.00;;
15063;SDS011;7631;52.088;5.088;2023-05-13T04:13:57;9.23;;;8.43;;
15063;SDS011;7631;52.088;5.088;2023-05-13T04:16:22;10.00;;;9.10;;
15063;SDS011;7631;52.088;5.088;2023-05-13T04:18:47;10.23;;;9.23;;
15063;SDS011;7631;52.088;5.088;2023-05-13T04:21:12;10.60;;;9.60;;
15063;SDS011;7631;52.088;5.088;2023-05-13T04:23:38;9.83;;;8.83;;
15063;SDS011;7631;52.088;5.088;2023-05-13T04:26:03;10.17;;;9.27;;
15063;SDS011;7631;52.088;5.088;2023-05-13T04:28:28;10.07;;;9.17;;
15063;SDS011;7631;52.088;5.088;2023-05-13T04:30:53;10.57;;;9.57;;
15063;SDS011;7631;52.088;5.088;2023-05-13T04:33:19;10.43;;;9.43;;
15063;SDS011;7631;52.088;5.088;2023-05-13T04:35:44;10.00;;;9.00;;
15063;SDS011;7631;52.088;5.088;2023-05-13T04:38:09;11.00;;;10.00;;
15063;SDS011;7631;52.088;5.088;2023-05-13T04:40:34;10.60;;;9.60;;
15063;SDS011;7631;52.088;5.088;2023-05-13T04:43:00;11.30;;;10.20;;
15063;SDS011;7631;52.088;5.088;2023-05-13T04:45:25;10.30;;;9.40;;
15063;SDS011;7631;52.088;5.088;2023-05-13T04:47:50;11.63;;;10.03;;
15063;SDS011;7631;52.088;5.088;2023-05-13T04:50:16;10.60;;;9.60;;
15063;SDS011;7631;52.088;5.088;2023-05-13T04:52:41;11.33;;;10.13;;
15063;SDS011;7631;52.088;5.088;2023-05-13T04:55:08;11.30;;;10.20;;
15063;SDS011;7631;52.088;5.088;2023-05-13T04:57:33;11.63;;;10.50;;
15063;SDS011;7631;52.088;5.088;2023-05-13T04:59:58;12.63;;;11.33;;
15063;SDS011;7631;52.088;5.088;2023-05-13T05:02:24;11.77;;;10.53;;
15063;SDS011;7631;52.088;5.088;2023-05-13T05:04:49;11.43;;;10.43;;
15063;SDS011;7631;52.088;5.088;2023-05-13T05:07:14;11.73;;;10.63;;
15063;SDS011;7631;52.088;5.088;2023-05-13T05:09:40;12.17;;;10.97;;
15063;SDS011;7631;52.088;5.088;2023-05-13T05:12:05;11.73;;;10.57;;
15063;SDS011;7631;52.088;5.088;2023-05-13T05:14:31;11.90;;;10.80;;
15063;SDS011;7631;52.088;5.088;2023-05-13T05:16:56;12.33;;;10.97;;
15063;SDS011;7631;52.088;5.088;2023-05-13T05:19:21;12.47;;;11.27;;
15063;SDS011;7631;52.088;5.088;2023-05-13T05:21:48;12.17;;;10.83;;
15063;SDS011;7631;52.088;5.088;2023-05-13T05:24:14;12.87;;;11.67;;
15063;SDS011;7631;52.088;5.088;2023-05-13T05:26:39;13.67;;;12.27;;
15063;SDS011;7631;52.088;5.088;2023-05-13T05:29:04;12.50;;;11.30;;
15063;SDS011;7631;52.088;5.088;2023-05-13T05:31:30;12.77;;;11.57;;
15063;SDS011;7631;52.088;5.088;2023-05-13T05:33:55;12.70;;;11.50;;
15063;SDS011;7631;52.088;5.088;2023-05-13T05:36:20;13.10;;;11.77;;
15063;SDS011;7631;52.088;5.088;2023-05-13T05:38:45;13.90;;;12.53;;
15063;SDS011;7631;52.088;5.088;2023-05-13T05:41:11;13.33;;;11.93;;
15063;SDS011;7631;52.088;5.088;2023-05-13T05:43:37;13.73;;;12.33;;
15063;SDS011;7631;52.088;5.088;2023-05-13T05:46:02;13.63;;;12.23;;
15063;SDS011;7631;52.088;5.088;2023-05-13T05:48:28;13.37;;;12.03;;
15063;SDS011;7631;52.088;5.088;2023-05-13T05:50:54;13.20;;;12.00;;
15063;SDS011;7631;52.088;5.088;2023-05-13T05:53:20;12.50;;;11.37;;
15063;SDS011;7631;52.088;5.088;2023-05-13T05:55:45;13.43;;;12.07;;
15063;SDS011;7631;52.088;5.088;2023-05-13T05:58:13;13.67;;;12.37;;
15063;SDS011;7631;52.088;5.088;2023-05-13T06:00:38;13.40;;;12.10;;
15063;SDS011;7631;52.088;5.088;2023-05-13T06:03:04;12.60;;;11.47;;
15063;SDS011;7631;52.088;5.088;2023-05-13T06:05:29;13.27;;;11.97;;
15063;SDS011;7631;52.088;5.088;2023-05-13T06:07:54;13.57;;;12.20;;
15063;SDS011;7631;52.088;5.088;2023-05-13T06:10:19;13.67;;;12.30;;
15063;SDS011;7631;52.088;5.088;2023-05-13T06:12:45;13.40;;;12.10;;
15063;SDS011;7631;52.088;5.088;2023-05-13T06:15:10;11.97;;;10.77;;
15063;SDS011;7631;52.088;5.088;2023-05-13T06:17:36;13.23;;;12.00;;
15063;SDS011;7631;52.088;5.088;2023-05-13T06:20:01;12.03;;;10.93;;
15063;SDS011;7631;52.088;5.088;2023-05-13T06:22:26;11.83;;;10.73;;
15063;SDS011;7631;52.088;5.088;2023-05-13T06:24:51;12.97;;;11.70;;
15063;SDS011;7631;52.088;5.088;2023-05-13T06:27:17;12.23;;;11.03;;
15063;SDS011;7631;52.088;5.088;2023-05-13T06:29:42;13.33;;;10.93;;
15063;SDS011;7631;52.088;5.088;2023-05-13T06:32:07;11.87;;;10.67;;
15063;SDS011;7631;52.088;5.088;2023-05-13T06:34:33;13.00;;;11.80;;
15063;SDS011;7631;52.088;5.088;2023-05-13T06:36:58;11.60;;;10.40;;
15063;SDS011;7631;52.088;5.088;2023-05-13T06:39:23;12.07;;;10.97;;
15063;SDS011;7631;52.088;5.088;2023-05-13T06:41:49;11.67;;;10.00;;
15063;SDS011;7631;52.088;5.088;2023-05-13T06:44:14;11.17;;;10.07;;
15063;SDS011;7631;52.088;5.088;2023-05-13T06:46:39;10.53;;;9.63;;
15063;SDS011;7631;52.088;5.088;2023-05-13T06:49:04;11.13;;;9.90;;
15063;SDS011;7631;52.088;5.088;2023-05-13T06:51:30;11.27;;;10.27;;
15063;SDS011;7631;52.088;5.088;2023-05-13T06:53:57;10.23;;;9.23;;
15063;SDS011;7631;52.088;5.088;2023-05-13T06:56:22;10.77;;;9.77;;
15063;SDS011;7631;52.088;5.088;2023-05-13T06:58:48;10.27;;;9.27;;
15063;SDS011;7631;52.088;5.088;2023-05-13T07:01:14;12.27;;;10.23;;
15063;SDS011;7631;52.088;5.088;2023-05-13T07:03:40;11.83;;;10.67;;
15063;SDS011;7631;52.088;5.088;2023-05-13T07:06:05;12.07;;;10.93;;
15063;SDS011;7631;52.088;5.088;2023-05-13T07:08:30;9.80;;;8.90;;
15063;SDS011;7631;52.088;5.088;2023-05-13T07:10:55;10.43;;;9.43;;
15063;SDS011;7631;52.088;5.088;2023-05-13T07:13:21;11.27;;;10.17;;
15063;SDS011;7631;52.088;5.088;2023-05-13T07:15:46;12.23;;;9.83;;
15063;SDS011;7631;52.088;5.088;2023-05-13T07:18:12;11.27;;;10.17;;
15063;SDS011;7631;52.088;5.088;2023-05-13T07:20:37;11.57;;;10.37;;
15063;SDS011;7631;52.088;5.088;2023-05-13T07:23:02;13.23;;;10.70;;
15063;SDS011;7631;52.088;5.088;2023-05-13T07:25:27;11.77;;;10.17;;
15063;SDS011;7631;52.088;5.088;2023-05-13T07:27:53;11.13;;;10.03;;
15063;SDS011;7631;52.088;5.088;2023-05-13T07:30:18;12.40;;;10.30;;
15063;SDS011;7631;52.088;5.088;2023-05-13T07:32:43;11.60;;;9.97;;
15063;SDS011;7631;52.088;5.088;2023-05-13T07:35:09;10.53;;;9.53;;
15063;SDS011;7631;52.088;5.088;2023-05-13T07:37:34;9.93;;;8.93;;
15063;SDS011;7631;52.088;5.088;2023-05-13T07:40:00;10.13;;;9.13;;
15063;SDS011;7631;52.088;5.088;2023-05-13T07:42:26;10.40;;;9.40;;
15063;SDS011;7631;52.088;5.088;2023-05-13T07:44:52;9.93;;;8.93;;
15063;SDS011;7631;52.088;5.088;2023-05-13T07:47:17;10.10;;;9.07;;
15063;SDS011;7631;52.088;5.088;2023-05-13T07:49:43;9.67;;;8.60;;
15063;SDS011;7631;52.088;5.088;2023-05-13T07:52:08;10.17;;;9.23;;
15063;SDS011;7631;52.088;5.088;2023-05-13T07:54:33;11.63;;;9.43;;
15063;SDS011;7631;52.088;5.088;2023-05-13T07:56:58;10.40;;;9.37;;
15063;SDS011;7631;52.088;5.088;2023-05-13T07:59:24;11.33;;;9.50;;
15063;SDS011;7631;52.088;5.088;2023-05-13T08:08:08;8.77;;;7.97;;
15063;SDS011;7631;52.088;5.088;2023-05-13T08:16:56;9.20;;;8.30;;
15063;SDS011;7631;52.088;5.088;2023-05-13T08:31:58;9.80;;;8.80;;
15063;SDS011;7631;52.088;5.088;2023-05-13T08:34:24;10.13;;;7.97;;
15063;SDS011;7631;52.088;5.088;2023-05-13T08:45:54;8.93;;;8.03;;
15063;SDS011;7631;52.088;5.088;2023-05-13T08:48:20;8.77;;;7.87;;
15063;SDS011;7631;52.088;5.088;2023-05-13T08:50:46;8.33;;;7.53;;
15063;SDS011;7631;52.088;5.088;2023-05-13T08:53:12;8.27;;;7.60;;
15063;SDS011;7631;52.088;5.088;2023-05-13T08:55:38;9.07;;;8.17;;
15063;SDS011;7631;52.088;5.088;2023-05-13T08:58:04;7.97;;;7.27;;
15063;SDS011;7631;52.088;5.088;2023-05-13T09:13:18;7.40;;;6.80;;
15063;SDS011;7631;52.088;5.088;2023-05-13T09:15:43;7.93;;;7.13;;
15063;SDS011;7631;52.088;5.088;2023-05-13T09:18:09;10.47;;;7.07;;
15063;SDS011;7631;52.088;5.088;2023-05-13T09:27:18;10.73;;;7.93;;
15063;SDS011;7631;52.088;5.088;2023-05-13T09:29:47;7.78;;;6.97;;
15063;SDS011;7631;52.088;5.088;2023-05-13T09:32:22;7.72;;;7.03;;
15063;SDS011;7631;52.088;5.088;2023-05-13T09:34:48;8.52;;;7.60;;
15063;SDS011;7631;52.088;5.088;2023-05-13T09:37:16;8.15;;;7.35;;
15063;SDS011;7631;52.088;5.088;2023-05-13T09:39:41;7.28;;;6.55;;
15063;SDS011;7631;52.088;5.088;2023-05-13T09:42:16;8.50;;;7.68;;
15063;SDS011;7631;52.088;5.088;2023-05-13T09:44:42;7.30;;;6.60;;
15063;SDS011;7631;52.088;5.088;2023-05-13T09:47:14;7.53;;;6.82;;
15063;SDS011;7631;52.088;5.088;2023-05-13T09:49:41;8.07;;;7.28;;
15063;SDS011;7631;52.088;5.088;2023-05-13T09:52:07;8.27;;;7.57;;
15063;SDS011;7631;52.088;5.088;2023-05-13T09:54:35;7.82;;;7.03;;
15063;SDS011;7631;52.088;5.088;2023-05-13T09:57:02;7.50;;;6.80;;
15063;SDS011;7631;52.088;5.088;2023-05-13T10:08:18;7.93;;;7.20;;
15063;SDS011;7631;52.088;5.088;2023-05-13T10:10:43;7.75;;;7.05;;
15063;SDS011;7631;52.088;5.088;2023-05-13T10:13:12;8.25;;;7.43;;
15063;SDS011;7631;52.088;5.088;2023-05-13T10:15:48;8.38;;;7.57;;
15063;SDS011;7631;52.088;5.088;2023-05-13T10:18:16;8.35;;;7.20;;
15063;SDS011;7631;52.088;5.088;2023-05-13T10:20:41;8.32;;;7.50;;
15063;SDS011;7631;52.088;5.088;2023-05-13T10:23:07;8.65;;;7.85;;
15063;SDS011;7631;52.088;5.088;2023-05-13T10:25:33;9.52;;;8.07;;
15063;SDS011;7631;52.088;5.088;2023-05-13T10:27:58;7.25;;;6.63;;
15063;SDS011;7631;52.088;5.088;2023-05-13T10:30:23;8.20;;;7.47;;
15063;SDS011;7631;52.088;5.088;2023-05-13T10:32:50;9.02;;;7.57;;
15063;SDS011;7631;52.088;5.088;2023-05-13T10:35:16;9.70;;;7.35;;
15063;SDS011;7631;52.088;5.088;2023-05-13T10:43:20;7.72;;;7.03;;
15063;SDS011;7631;52.088;5.088;2023-05-13T10:45:46;8.35;;;7.28;;
15063;SDS011;7631;52.088;5.088;2023-05-13T10:48:12;9.95;;;7.90;;
15063;SDS011;7631;52.088;5.088;2023-05-13T10:50:37;8.05;;;7.32;;
15063;SDS011;7631;52.088;5.088;2023-05-13T10:53:06;7.97;;;6.95;;
15063;SDS011;7631;52.088;5.088;2023-05-13T10:55:32;7.35;;;6.65;;
15063;SDS011;7631;52.088;5.088;2023-05-13T10:58:06;7.90;;;7.10;;
15063;SDS011;7631;52.088;5.088;2023-05-13T11:00:32;7.43;;;6.72;;
15063;SDS011;7631;52.088;5.088;2023-05-13T11:03:14;7.82;;;6.97;;
15063;SDS011;7631;52.088;5.088;2023-05-13T11:06:00;7.60;;;6.82;;
15063;SDS011;7631;52.088;5.088;2023-05-13T11:08:35;7.47;;;6.72;;
15063;SDS011;7631;52.088;5.088;2023-05-13T11:11:00;7.80;;;7.00;;
15063;SDS011;7631;52.088;5.088;2023-05-13T11:13:35;7.28;;;6.68;;
15063;SDS011;7631;52.088;5.088;2023-05-13T11:16:01;7.68;;;6.75;;
15063;SDS011;7631;52.088;5.088;2023-05-13T11:18:29;9.00;;;6.93;;
15063;SDS011;7631;52.088;5.088;2023-05-13T11:21:00;8.85;;;6.95;;
15063;SDS011;7631;52.088;5.088;2023-05-13T11:23:26;10.65;;;6.97;;
15063;SDS011;7631;52.088;5.088;2023-05-13T11:26:12;9.68;;;7.00;;
15063;SDS011;7631;52.088;5.088;2023-05-13T11:31:22;8.98;;;7.15;;
15063;SDS011;7631;52.088;5.088;2023-05-13T11:34:09;7.40;;;6.70;;
15063;SDS011;7631;52.088;5.088;2023-05-13T11:36:33;8.38;;;6.43;;
15063;SDS011;7631;52.088;5.088;2023-05-13T11:39:06;6.88;;;6.25;;
15063;SDS011;7631;52.088;5.088;2023-05-13T11:41:32;7.68;;;6.93;;
15063;SDS011;7631;52.088;5.088;2023-05-13T11:43:58;7.20;;;6.50;;
15063;SDS011;7631;52.088;5.088;2023-05-13T11:46:23;8.45;;;7.15;;
15063;SDS011;7631;52.088;5.088;2023-05-13T11:48:50;7.60;;;6.75;;
15063;SDS011;7631;52.088;5.088;2023-05-13T11:51:16;6.93;;;6.22;;
15063;SDS011;7631;52.088;5.088;2023-05-13T11:53:42;7.60;;;6.80;;
15063;SDS011;7631;52.088;5.088;2023-05-13T11:56:08;6.93;;;6.22;;
15063;SDS011;7631;52.088;5.088;2023-05-13T11:58:34;7.68;;;6.88;;
15063;SDS011;7631;52.088;5.088;2023-05-13T12:01:00;7.25;;;6.55;;
15063;SDS011;7631;52.088;5.088;2023-05-13T12:03:26;6.93;;;6.22;;
15063;SDS011;7631;52.088;5.088;2023-05-13T12:05:59;7.18;;;6.50;;
15063;SDS011;7631;52.088;5.088;2023-05-13T12:08:24;7.32;;;6.63;;
15063;SDS011;7631;52.088;5.088;2023-05-13T12:10:50;7.07;;;6.38;;
15063;SDS011;7631;52.088;5.088;2023-05-13T12:13:15;7.18;;;6.47;;
15063;SDS011;7631;52.088;5.088;2023-05-13T12:15:41;6.93;;;6.32;;
15063;SDS011;7631;52.088;5.088;2023-05-13T12:18:06;7.43;;;6.63;;
15063;SDS011;7631;52.088;5.088;2023-05-13T12:20:32;7.03;;;6.32;;
15063;SDS011;7631;52.088;5.088;2023-05-13T12:22:59;6.82;;;6.22;;
15063;SDS011;7631;52.088;5.088;2023-05-13T12:25:41;6.75;;;6.22;;
15063;SDS011;7631;52.088;5.088;2023-05-13T12:28:16;6.57;;;5.97;;
15063;SDS011;7631;52.088;5.088;2023-05-13T12:39:02;6.85;;;6.25;;
15063;SDS011;7631;52.088;5.088;2023-05-13T12:41:28;6.32;;;5.70;;
15063;SDS011;7631;52.088;5.088;2023-05-13T12:44:03;6.85;;;6.03;;
15063;SDS011;7631;52.088;5.088;2023-05-13T12:46:28;7.20;;;6.47;;
15063;SDS011;7631;52.088;5.088;2023-05-13T12:48:54;6.22;;;5.63;;
15063;SDS011;7631;52.088;5.088;2023-05-13T12:51:20;7.15;;;6.50;;
15063;SDS011;7631;52.088;5.088;2023-05-13T12:53:45;6.40;;;5.90;;
15063;SDS011;7631;52.088;5.088;2023-05-13T12:56:10;6.95;;;6.35;;
15063;SDS011;7631;52.088;5.088;2023-05-13T12:58:36;5.97;;;5.57;;
15063;SDS011;7631;52.088;5.088;2023-05-13T13:01:01;7.00;;;6.30;;
15063;SDS011;7631;52.088;5.088;2023-05-13T13:03:26;6.85;;;6.15;;
15063;SDS011;7631;52.088;5.088;2023-05-13T13:05:52;6.45;;;5.93;;
15063;SDS011;7631;52.088;5.088;2023-05-13T13:08:17;6.57;;;5.97;;
15063;SDS011;7631;52.088;5.088;2023-05-13T13:10:42;6.35;;;5.75;;
15063;SDS011;7631;52.088;5.088;2023-05-13T13:13:07;6.40;;;5.80;;
15063;SDS011;7631;52.088;5.088;2023-05-13T13:15:33;6.82;;;6.22;;
15063;SDS011;7631;52.088;5.088;2023-05-13T13:17:58;6.70;;;6.10;;
15063;SDS011;7631;52.088;5.088;2023-05-13T13:20:23;6.47;;;5.88;;
15063;SDS011;7631;52.088;5.088;2023-05-13T13:22:49;6.00;;;5.50;;
15063;SDS011;7631;52.088;5.088;2023-05-13T13:25:14;6.30;;;5.70;;
15063;SDS011;7631;52.088;5.088;2023-05-13T13:27:39;6.63;;;6.03;;
15063;SDS011;7631;52.088;5.088;2023-05-13T13:30:05;7.00;;;6.40;;
15063;SDS011;7631;52.088;5.088;2023-05-13T13:32:31;6.60;;;6.05;;
15063;SDS011;7631;52.088;5.088;2023-05-13T13:34:59;6.32;;;5.57;;
15063;SDS011;7631;52.088;5.088;2023-05-13T13:37:26;6.75;;;6.05;;
15063;SDS011;7631;52.088;5.088;2023-05-13T13:39:52;6.68;;;6.07;;
15063;SDS011;7631;52.088;5.088;2023-05-13T13:42:17;6.65;;;6.05;;
15063;SDS011;7631;52.088;5.088;2023-05-13T13:44:42;6.78;;;6.07;;
15063;SDS011;7631;52.088;5.088;2023-05-13T13:47:08;7.10;;;6.50;;
15063;SDS011;7631;52.088;5.088;2023-05-13T13:49:33;7.35;;;6.30;;
15063;SDS011;7631;52.088;5.088;2023-05-13T13:51:59;6.85;;;6.25;;
15063;SDS011;7631;52.088;5.088;2023-05-13T13:54:24;7.30;;;6.70;;
15063;SDS011;7631;52.088;5.088;2023-05-13T13:56:49;7.13;;;6.53;;
15063;SDS011;7631;52.088;5.088;2023-05-13T13:59:14;8.02;;;6.57;;
15063;SDS011;7631;52.088;5.088;2023-05-13T14:01:40;6.90;;;6.10;;
15063;SDS011;7631;52.088;5.088;2023-05-13T14:04:09;6.45;;;5.88;;
15063;SDS011;7631;52.088;5.088;2023-05-13T14:06:34;6.18;;;5.68;;
15063;SDS011;7631;52.088;5.088;2023-05-13T14:08:59;7.00;;;6.40;;
15063;SDS011;7631;52.088;5.088;2023-05-13T14:11:25;7.18;;;6.57;;
15063;SDS011;7631;52.088;5.088;2023-05-13T14:13:50;7.05;;;6.38;;
15063;SDS011;7631;52.088;5.088;2023-05-13T14:16:15;7.05;;;6.45;;
15063;SDS011;7631;52.088;5.088;2023-05-13T14:18:40;6.70;;;6.10;;
15063;SDS011;7631;52.088;5.088;2023-05-13T14:21:07;7.03;;;6.28;;
15063;SDS011;7631;52.088;5.088;2023-05-13T14:23:32;6.57;;;6.07;;
15063;SDS011;7631;52.088;5.088;2023-05-13T14:25:57;6.65;;;6.05;;
15063;SDS011;7631;52.088;5.088;2023-05-13T14:28:22;7.97;;;6.80;;
15063;SDS011;7631;52.088;5.088;2023-05-13T14:30:48;8.05;;;7.05;;
15063;SDS011;7631;52.088;5.088;2023-05-13T14:33:13;8.02;;;7.25;;
15063;SDS011;7631;52.088;5.088;2023-05-13T14:35:38;7.75;;;7.05;;
15063;SDS011;7631;52.088;5.088;2023-05-13T14:38:04;7.28;;;6.65;;
15063;SDS011;7631;52.088;5.088;2023-05-13T14:40:29;7.90;;;7.15;;
15063;SDS011;7631;52.088;5.088;2023-05-13T14:42:54;7.57;;;6.70;;
15063;SDS011;7631;52.088;5.088;2023-05-13T14:45:20;7.72;;;7.03;;
15063;SDS011;7631;52.088;5.088;2023-05-13T14:47:46;7.20;;;6.30;;
15063;SDS011;7631;52.088;5.088;2023-05-13T14:50:12;7.28;;;6.65;;
15063;SDS011;7631;52.088;5.088;2023-05-13T14:52:39;7.72;;;6.90;;
15063;SDS011;7631;52.088;5.088;2023-05-13T14:55:04;7.28;;;6.68;;
15063;SDS011;7631;52.088;5.088;2023-05-13T14:57:29;6.90;;;6.30;;
15063;SDS011;7631;52.088;5.088;2023-05-13T14:59:55;6.88;;;6.28;;
15063;SDS011;7631;52.088;5.088;2023-05-13T15:02:20;6.90;;;6.30;;
15063;SDS011;7631;52.088;5.088;2023-05-13T15:04:45;7.07;;;6.47;;
15063;SDS011;7631;52.088;5.088;2023-05-13T15:07:11;6.95;;;6.20;;
15063;SDS011;7631;52.088;5.088;2023-05-13T15:09:36;7.93;;;7.03;;
15063;SDS011;7631;52.088;5.088;2023-05-13T15:12:01;6.82;;;6.22;;
15063;SDS011;7631;52.088;5.088;2023-05-13T15:14:27;7.60;;;6.90;;
15063;SDS011;7631;52.088;5.088;2023-05-13T15:16:52;7.25;;;6.55;;
15063;SDS011;7631;52.088;5.088;2023-05-13T15:19:17;7.90;;;6.68;;
15063;SDS011;7631;52.088;5.088;2023-05-13T15:21:43;6.18;;;5.60;;
15063;SDS011;7631;52.088;5.088;2023-05-13T15:24:08;6.78;;;6.18;;
15063;SDS011;7631;52.088;5.088;2023-05-13T15:26:33;7.60;;;6.88;;
15063;SDS011;7631;52.088;5.088;2023-05-13T15:28:58;7.65;;;6.93;;
15063;SDS011;7631;52.088;5.088;2023-05-13T15:31:24;6.80;;;6.20;;
15063;SDS011;7631;52.088;5.088;2023-05-13T15:33:49;7.55;;;6.47;;
15063;SDS011;7631;52.088;5.088;2023-05-13T15:36:14;7.53;;;6.68;;
15063;SDS011;7631;52.088;5.088;2023-05-13T15:38:40;7.25;;;6.53;;
15063;SDS011;7631;52.088;5.088;2023-05-13T15:41:05;7.25;;;6.55;;
15063;SDS011;7631;52.088;5.088;2023-05-13T15:43:31;7.65;;;6.95;;
15063;SDS011;7631;52.088;5.088;2023-05-13T15:45:56;7.10;;;6.50;;
15063;SDS011;7631;52.088;5.088;2023-05-13T15:48:22;7.55;;;6.88;;
15063;SDS011;7631;52.088;5.088;2023-05-13T15:50:48;7.25;;;6.60;;
15063;SDS011;7631;52.088;5.088;2023-05-13T15:53:13;7.10;;;6.43;;
15063;SDS011;7631;52.088;5.088;2023-05-13T15:55:38;7.40;;;6.60;;
15063;SDS011;7631;52.088;5.088;2023-05-13T15:58:04;6.63;;;6.03;;
15063;SDS011;7631;52.088;5.088;2023-05-13T16:00:30;6.43;;;5.90;;
15063;SDS011;7631;52.088;5.088;2023-05-13T16:02:55;7.13;;;6.43;;
15063;SDS011;7631;52.088;5.088;2023-05-13T16:05:20;6.75;;;6.15;;
15063;SDS011;7631;52.088;5.088;2023-05-13T16:07:46;6.60;;;6.10;;
15063;SDS011;7631;52.088;5.088;2023-05-13T16:10:11;8.40;;;6.85;;
15063;SDS011;7631;52.088;5.088;2023-05-13T16:12:40;7.20;;;6.50;;
15063;SDS011;7631;52.088;5.088;2023-05-13T16:15:10;7.10;;;6.40;;
15063;SDS011;7631;52.088;5.088;2023-05-13T16:17:36;7.07;;;6.38;;